sensor_id;sensor_type;location;lat;lon;timestamp;temperature;humidity
12849;DHT22;6493;50.928;7.172;2022-10-19T00:03:30;7.40;67.30
12849;DHT22;6493;50.928;7.172;2022-10-19T00:08:35;7.30;67.90
12849;DHT22;6493;50.928;7.172;2022-10-19T00:13:39;7.30;67.20
12849;DHT22;6493;50.928;7.172;2022-10-19T00:18:43;7.20;67.10
12849;DHT22;6493;50.928;7.172;2022-10-19T00:23:49;7.10;67.30
12849;DHT22;6493;50.928;7.172;2022-10-19T00:28:52;7.10;67.40
12849;DHT22;6493;50.928;7.172;2022-10-19T00:33:57;7.00;67.30
12849;DHT22;6493;50.928;7.172;2022-10-19T00:39:04;6.90;67.30
12849;DHT22;6493;50.928;7.172;2022-10-19T00:49:45;6.70;67.20
12849;DHT22;6493;50.928;7.172;2022-10-19T00:54:51;6.60;67.20
12849;DHT22;6493;50.928;7.172;2022-10-19T00:59:57;6.50;68.10
12849;DHT22;6493;50.928;7.172;2022-10-19T01:05:02;6.50;67.50
12849;DHT22;6493;50.928;7.172;2022-10-19T01:10:08;6.50;68.30
12849;DHT22;6493;50.928;7.172;2022-10-19T01:15:19;6.40;67.50
12849;DHT22;6493;50.928;7.172;2022-10-19T01:21:02;6.40;67.60
12849;DHT22;6493;50.928;7.172;2022-10-19T01:26:24;6.30;68.40
12849;DHT22;6493;50.928;7.172;2022-10-19T01:31:37;6.20;67.50
12849;DHT22;6493;50.928;7.172;2022-10-19T01:36:50;6.20;67.70
12849;DHT22;6493;50.928;7.172;2022-10-19T01:42:02;6.10;68.30
12849;DHT22;6493;50.928;7.172;2022-10-19T01:47:13;6.10;67.70
12849;DHT22;6493;50.928;7.172;2022-10-19T01:52:20;6.10;67.70
12849;DHT22;6493;50.928;7.172;2022-10-19T01:57:28;6.00;67.60
12849;DHT22;6493;50.928;7.172;2022-10-19T02:02:36;6.00;67.70
12849;DHT22;6493;50.928;7.172;2022-10-19T02:07:45;6.00;67.80
12849;DHT22;6493;50.928;7.172;2022-10-19T02:12:52;6.00;67.80
12849;DHT22;6493;50.928;7.172;2022-10-19T02:18:00;5.90;67.50
12849;DHT22;6493;50.928;7.172;2022-10-19T02:23:04;5.90;67.50
12849;DHT22;6493;50.928;7.172;2022-10-19T02:28:08;5.90;67.50
12849;DHT22;6493;50.928;7.172;2022-10-19T02:33:13;5.80;67.50
12849;DHT22;6493;50.928;7.172;2022-10-19T02:38:21;5.80;67.40
12849;DHT22;6493;50.928;7.172;2022-10-19T02:43:26;5.80;67.60
12849;DHT22;6493;50.928;7.172;2022-10-19T02:48:33;5.80;68.20
12849;DHT22;6493;50.928;7.172;2022-10-19T02:53:37;5.70;67.50
12849;DHT22;6493;50.928;7.172;2022-10-19T02:58:41;5.70;67.60
12849;DHT22;6493;50.928;7.172;2022-10-19T03:03:46;5.60;67.60
12849;DHT22;6493;50.928;7.172;2022-10-19T03:08:50;5.60;67.70
12849;DHT22;6493;50.928;7.172;2022-10-19T03:13:53;5.60;67.90
12849;DHT22;6493;50.928;7.172;2022-10-19T03:18:58;5.60;67.90
12849;DHT22;6493;50.928;7.172;2022-10-19T03:24:02;5.50;68.00
12849;DHT22;6493;50.928;7.172;2022-10-19T03:29:05;5.60;68.00
12849;DHT22;6493;50.928;7.172;2022-10-19T03:34:10;5.60;67.90
12849;DHT22;6493;50.928;7.172;2022-10-19T03:39:15;5.60;67.80
12849;DHT22;6493;50.928;7.172;2022-10-19T03:44:19;5.60;67.70
12849;DHT22;6493;50.928;7.172;2022-10-19T03:49:24;5.60;68.40
12849;DHT22;6493;50.928;7.172;2022-10-19T03:54:28;5.60;67.60
12849;DHT22;6493;50.928;7.172;2022-10-19T03:59:31;5.60;67.60
12849;DHT22;6493;50.928;7.172;2022-10-19T04:04:36;5.50;67.40
12849;DHT22;6493;50.928;7.172;2022-10-19T04:09:40;5.60;67.60
12849;DHT22;6493;50.928;7.172;2022-10-19T04:14:43;5.50;67.70
12849;DHT22;6493;50.928;7.172;2022-10-19T04:20:00;5.40;67.50
12849;DHT22;6493;50.928;7.172;2022-10-19T04:25:05;5.40;67.60
12849;DHT22;6493;50.928;7.172;2022-10-19T04:30:09;5.30;67.40
12849;DHT22;6493;50.928;7.172;2022-10-19T04:35:14;5.20;67.40
12849;DHT22;6493;50.928;7.172;2022-10-19T04:40:18;5.10;67.30
12849;DHT22;6493;50.928;7.172;2022-10-19T04:45:21;5.00;68.00
12849;DHT22;6493;50.928;7.172;2022-10-19T04:50:26;4.90;67.50
12849;DHT22;6493;50.928;7.172;2022-10-19T04:55:30;4.80;67.60
12849;DHT22;6493;50.928;7.172;2022-10-19T05:00:33;4.80;67.50
12849;DHT22;6493;50.928;7.172;2022-10-19T05:05:38;4.70;67.50
12849;DHT22;6493;50.928;7.172;2022-10-19T05:10:42;4.70;67.50
12849;DHT22;6493;50.928;7.172;2022-10-19T05:15:55;4.60;67.70
12849;DHT22;6493;50.928;7.172;2022-10-19T05:21:05;4.60;68.50
12849;DHT22;6493;50.928;7.172;2022-10-19T05:26:10;4.60;67.80
12849;DHT22;6493;50.928;7.172;2022-10-19T05:31:15;4.60;67.70
12849;DHT22;6493;50.928;7.172;2022-10-19T05:36:22;4.60;67.90
12849;DHT22;6493;50.928;7.172;2022-10-19T05:41:27;4.60;67.80
12849;DHT22;6493;50.928;7.172;2022-10-19T05:46:31;4.60;67.90
12849;DHT22;6493;50.928;7.172;2022-10-19T05:51:37;4.50;68.00
12849;DHT22;6493;50.928;7.172;2022-10-19T05:56:41;4.60;68.00
12849;DHT22;6493;50.928;7.172;2022-10-19T06:01:45;4.60;68.10
12849;DHT22;6493;50.928;7.172;2022-10-19T06:06:50;4.50;68.10
12849;DHT22;6493;50.928;7.172;2022-10-19T06:11:54;4.50;68.00
12849;DHT22;6493;50.928;7.172;2022-10-19T06:16:57;4.50;67.90
12849;DHT22;6493;50.928;7.172;2022-10-19T06:22:02;4.50;68.00
12849;DHT22;6493;50.928;7.172;2022-10-19T06:27:06;4.40;67.80
12849;DHT22;6493;50.928;7.172;2022-10-19T06:32:09;4.40;67.80
12849;DHT22;6493;50.928;7.172;2022-10-19T06:37:14;4.30;67.70
12849;DHT22;6493;50.928;7.172;2022-10-19T06:42:18;4.30;67.80
12849;DHT22;6493;50.928;7.172;2022-10-19T06:47:21;4.20;67.80
12849;DHT22;6493;50.928;7.172;2022-10-19T06:52:31;4.20;68.00
12849;DHT22;6493;50.928;7.172;2022-10-19T06:57:35;4.20;68.40
12849;DHT22;6493;50.928;7.172;2022-10-19T07:02:39;4.30;68.90
12849;DHT22;6493;50.928;7.172;2022-10-19T07:07:44;4.40;69.00
12849;DHT22;6493;50.928;7.172;2022-10-19T07:12:47;4.50;69.10
12849;DHT22;6493;50.928;7.172;2022-10-19T07:17:52;4.70;69.50
12849;DHT22;6493;50.928;7.172;2022-10-19T07:22:56;4.90;69.60
12849;DHT22;6493;50.928;7.172;2022-10-19T07:28:00;5.00;69.60
12849;DHT22;6493;50.928;7.172;2022-10-19T07:33:04;5.30;71.00
12849;DHT22;6493;50.928;7.172;2022-10-19T07:38:09;5.90;73.00
12849;DHT22;6493;50.928;7.172;2022-10-19T07:43:13;6.60;73.60
12849;DHT22;6493;50.928;7.172;2022-10-19T07:48:17;7.40;73.50
12849;DHT22;6493;50.928;7.172;2022-10-19T07:53:22;8.20;74.20
12849;DHT22;6493;50.928;7.172;2022-10-19T07:58:25;9.00;74.60
12849;DHT22;6493;50.928;7.172;2022-10-19T08:03:29;9.70;74.10
12849;DHT22;6493;50.928;7.172;2022-10-19T08:08:54;10.30;72.80
12849;DHT22;6493;50.928;7.172;2022-10-19T08:13:59;11.00;72.40
12849;DHT22;6493;50.928;7.172;2022-10-19T08:19:05;11.40;70.50
12849;DHT22;6493;50.928;7.172;2022-10-19T08:24:13;11.80;70.00
12849;DHT22;6493;50.928;7.172;2022-10-19T08:29:18;12.00;67.60
12849;DHT22;6493;50.928;7.172;2022-10-19T08:34:22;12.20;67.70
12849;DHT22;6493;50.928;7.172;2022-10-19T08:39:28;12.30;67.60
12849;DHT22;6493;50.928;7.172;2022-10-19T08:50:19;12.80;66.40
12849;DHT22;6493;50.928;7.172;2022-10-19T08:55:32;12.90;66.80
12849;DHT22;6493;50.928;7.172;2022-10-19T09:00:41;13.00;64.90
12849;DHT22;6493;50.928;7.172;2022-10-19T09:05:49;13.00;65.50
12849;DHT22;6493;50.928;7.172;2022-10-19T09:10:58;12.90;63.90
12849;DHT22;6493;50.928;7.172;2022-10-19T09:16:02;12.60;63.80
12849;DHT22;6493;50.928;7.172;2022-10-19T09:21:11;12.30;63.00
12849;DHT22;6493;50.928;7.172;2022-10-19T09:26:21;12.00;63.30
12849;DHT22;6493;50.928;7.172;2022-10-19T09:31:29;11.80;63.30
12849;DHT22;6493;50.928;7.172;2022-10-19T09:36:37;11.80;64.10
12849;DHT22;6493;50.928;7.172;2022-10-19T09:42:05;11.80;64.50
12849;DHT22;6493;50.928;7.172;2022-10-19T09:52:38;12.20;65.00
12849;DHT22;6493;50.928;7.172;2022-10-19T09:57:45;12.30;64.90
12849;DHT22;6493;50.928;7.172;2022-10-19T10:02:50;12.50;65.10
12849;DHT22;6493;50.928;7.172;2022-10-19T10:07:54;12.70;65.50
12849;DHT22;6493;50.928;7.172;2022-10-19T10:12:59;12.90;64.40
12849;DHT22;6493;50.928;7.172;2022-10-19T10:18:03;13.10;62.50
12849;DHT22;6493;50.928;7.172;2022-10-19T10:23:22;13.20;63.10
12849;DHT22;6493;50.928;7.172;2022-10-19T10:28:29;13.20;60.10
12849;DHT22;6493;50.928;7.172;2022-10-19T10:33:35;13.30;62.90
12849;DHT22;6493;50.928;7.172;2022-10-19T10:38:50;13.30;62.20
12849;DHT22;6493;50.928;7.172;2022-10-19T10:43:57;13.30;63.00
12849;DHT22;6493;50.928;7.172;2022-10-19T10:49:07;13.40;62.80
12849;DHT22;6493;50.928;7.172;2022-10-19T10:54:20;13.40;62.20
12849;DHT22;6493;50.928;7.172;2022-10-19T10:59:28;13.50;62.00
12849;DHT22;6493;50.928;7.172;2022-10-19T11:04:37;13.50;59.70
12849;DHT22;6493;50.928;7.172;2022-10-19T11:09:43;13.50;59.50
12849;DHT22;6493;50.928;7.172;2022-10-19T11:14:54;13.50;61.10
12849;DHT22;6493;50.928;7.172;2022-10-19T11:20:05;13.60;59.90
12849;DHT22;6493;50.928;7.172;2022-10-19T11:25:21;13.60;61.10
12849;DHT22;6493;50.928;7.172;2022-10-19T11:30:38;13.70;60.70
12849;DHT22;6493;50.928;7.172;2022-10-19T11:35:47;13.70;61.00
12849;DHT22;6493;50.928;7.172;2022-10-19T11:41:02;13.80;60.10
12849;DHT22;6493;50.928;7.172;2022-10-19T11:46:24;13.90;60.00
12849;DHT22;6493;50.928;7.172;2022-10-19T11:51:39;14.00;60.20
12849;DHT22;6493;50.928;7.172;2022-10-19T11:56:49;14.00;60.00
12849;DHT22;6493;50.928;7.172;2022-10-19T12:02:38;14.10;60.40
12849;DHT22;6493;50.928;7.172;2022-10-19T12:13:22;14.30;59.40
12849;DHT22;6493;50.928;7.172;2022-10-19T12:18:33;14.30;59.40
12849;DHT22;6493;50.928;7.172;2022-10-19T12:23:41;14.30;59.90
12849;DHT22;6493;50.928;7.172;2022-10-19T12:28:48;14.40;60.10
12849;DHT22;6493;50.928;7.172;2022-10-19T12:33:57;14.40;59.50
12849;DHT22;6493;50.928;7.172;2022-10-19T12:39:11;14.50;59.80
12849;DHT22;6493;50.928;7.172;2022-10-19T12:44:42;14.50;59.60
12849;DHT22;6493;50.928;7.172;2022-10-19T12:50:01;14.50;59.00
12849;DHT22;6493;50.928;7.172;2022-10-19T12:55:26;14.50;59.50
12849;DHT22;6493;50.928;7.172;2022-10-19T13:00:33;14.50;56.60
12849;DHT22;6493;50.928;7.172;2022-10-19T13:05:39;14.40;58.80
12849;DHT22;6493;50.928;7.172;2022-10-19T13:11:02;14.40;58.90
12849;DHT22;6493;50.928;7.172;2022-10-19T13:16:31;14.40;58.40
12849;DHT22;6493;50.928;7.172;2022-10-19T13:21:48;14.40;58.80
12849;DHT22;6493;50.928;7.172;2022-10-19T13:27:23;14.50;58.80
12849;DHT22;6493;50.928;7.172;2022-10-19T13:32:32;14.40;57.90
12849;DHT22;6493;50.928;7.172;2022-10-19T13:37:39;14.40;58.40
12849;DHT22;6493;50.928;7.172;2022-10-19T13:42:42;14.30;58.70
12849;DHT22;6493;50.928;7.172;2022-10-19T13:47:50;14.30;58.40
12849;DHT22;6493;50.928;7.172;2022-10-19T14:04:19;14.00;56.60
12849;DHT22;6493;50.928;7.172;2022-10-19T14:09:46;14.00;58.40
12849;DHT22;6493;50.928;7.172;2022-10-19T14:14:52;13.90;56.80
12849;DHT22;6493;50.928;7.172;2022-10-19T14:19:57;13.90;58.50
12849;DHT22;6493;50.928;7.172;2022-10-19T14:25:05;13.80;58.50
12849;DHT22;6493;50.928;7.172;2022-10-19T14:30:20;13.70;58.70
12849;DHT22;6493;50.928;7.172;2022-10-19T14:35:27;13.70;58.50
12849;DHT22;6493;50.928;7.172;2022-10-19T14:40:36;13.60;58.90
12849;DHT22;6493;50.928;7.172;2022-10-19T14:45:40;13.70;59.10
12849;DHT22;6493;50.928;7.172;2022-10-19T14:50:46;13.60;59.20
12849;DHT22;6493;50.928;7.172;2022-10-19T14:55:55;13.60;59.10
12849;DHT22;6493;50.928;7.172;2022-10-19T15:01:00;13.60;59.10
12849;DHT22;6493;50.928;7.172;2022-10-19T15:06:05;13.50;58.80
12849;DHT22;6493;50.928;7.172;2022-10-19T15:11:23;13.40;59.60
12849;DHT22;6493;50.928;7.172;2022-10-19T15:16:33;13.40;59.00
12849;DHT22;6493;50.928;7.172;2022-10-19T15:21:37;13.40;59.30
12849;DHT22;6493;50.928;7.172;2022-10-19T15:26:49;13.30;59.10
12849;DHT22;6493;50.928;7.172;2022-10-19T15:32:14;13.30;58.70
12849;DHT22;6493;50.928;7.172;2022-10-19T15:37:20;13.30;59.60
12849;DHT22;6493;50.928;7.172;2022-10-19T15:42:35;13.20;58.80
12849;DHT22;6493;50.928;7.172;2022-10-19T15:48:13;13.20;58.80
12849;DHT22;6493;50.928;7.172;2022-10-19T15:53:20;13.10;58.50
12849;DHT22;6493;50.928;7.172;2022-10-19T15:58:25;13.10;58.80
12849;DHT22;6493;50.928;7.172;2022-10-19T16:03:28;13.00;58.60
12849;DHT22;6493;50.928;7.172;2022-10-19T16:08:32;12.90;58.50
12849;DHT22;6493;50.928;7.172;2022-10-19T16:13:37;12.80;58.50
12849;DHT22;6493;50.928;7.172;2022-10-19T16:18:40;12.70;58.10
12849;DHT22;6493;50.928;7.172;2022-10-19T16:23:44;12.50;58.10
12849;DHT22;6493;50.928;7.172;2022-10-19T16:28:49;12.40;57.90
12849;DHT22;6493;50.928;7.172;2022-10-19T16:33:52;12.20;57.90
12849;DHT22;6493;50.928;7.172;2022-10-19T16:38:58;12.10;57.90
12849;DHT22;6493;50.928;7.172;2022-10-19T16:44:03;11.90;57.70
12849;DHT22;6493;50.928;7.172;2022-10-19T16:49:07;11.80;57.80
12849;DHT22;6493;50.928;7.172;2022-10-19T16:54:10;11.70;57.60
12849;DHT22;6493;50.928;7.172;2022-10-19T16:59:17;11.60;57.60
12849;DHT22;6493;50.928;7.172;2022-10-19T17:04:20;11.40;57.50
12849;DHT22;6493;50.928;7.172;2022-10-19T17:09:24;11.30;57.40
12849;DHT22;6493;50.928;7.172;2022-10-19T17:14:46;11.20;57.60
12849;DHT22;6493;50.928;7.172;2022-10-19T17:19:49;11.10;57.50
12849;DHT22;6493;50.928;7.172;2022-10-19T17:24:53;11.00;57.50
12849;DHT22;6493;50.928;7.172;2022-10-19T17:30:00;10.90;57.70
12849;DHT22;6493;50.928;7.172;2022-10-19T17:35:05;10.70;57.30
12849;DHT22;6493;50.928;7.172;2022-10-19T17:40:09;10.70;57.50
12849;DHT22;6493;50.928;7.172;2022-10-19T17:45:14;10.60;57.60
12849;DHT22;6493;50.928;7.172;2022-10-19T17:50:18;10.50;57.70
12849;DHT22;6493;50.928;7.172;2022-10-19T17:55:21;10.40;57.80
12849;DHT22;6493;50.928;7.172;2022-10-19T18:00:26;10.30;57.80
12849;DHT22;6493;50.928;7.172;2022-10-19T18:05:30;10.20;57.90
12849;DHT22;6493;50.928;7.172;2022-10-19T18:10:34;10.20;58.00
12849;DHT22;6493;50.928;7.172;2022-10-19T18:15:40;10.10;58.00
12849;DHT22;6493;50.928;7.172;2022-10-19T18:20:44;10.00;58.10
12849;DHT22;6493;50.928;7.172;2022-10-19T18:25:47;10.00;58.20
12849;DHT22;6493;50.928;7.172;2022-10-19T18:31:03;9.90;58.30
12849;DHT22;6493;50.928;7.172;2022-10-19T18:36:09;9.80;58.40
12849;DHT22;6493;50.928;7.172;2022-10-19T18:41:12;9.70;58.50
12849;DHT22;6493;50.928;7.172;2022-10-19T18:46:18;9.70;58.50
12849;DHT22;6493;50.928;7.172;2022-10-19T18:51:22;9.60;58.50
12849;DHT22;6493;50.928;7.172;2022-10-19T18:56:26;9.50;58.50
12849;DHT22;6493;50.928;7.172;2022-10-19T19:01:31;9.50;58.70
12849;DHT22;6493;50.928;7.172;2022-10-19T19:06:36;9.40;58.70
12849;DHT22;6493;50.928;7.172;2022-10-19T19:11:40;9.40;58.90
12849;DHT22;6493;50.928;7.172;2022-10-19T19:16:46;9.30;58.80
12849;DHT22;6493;50.928;7.172;2022-10-19T19:21:49;9.20;58.90
12849;DHT22;6493;50.928;7.172;2022-10-19T19:26:53;9.20;59.00
12849;DHT22;6493;50.928;7.172;2022-10-19T19:31:58;9.10;59.70
12849;DHT22;6493;50.928;7.172;2022-10-19T19:37:02;9.00;59.20
12849;DHT22;6493;50.928;7.172;2022-10-19T19:42:11;9.00;59.40
12849;DHT22;6493;50.928;7.172;2022-10-19T19:47:16;8.90;59.50
12849;DHT22;6493;50.928;7.172;2022-10-19T19:52:20;8.80;59.50
12849;DHT22;6493;50.928;7.172;2022-10-19T19:57:24;8.80;59.50
12849;DHT22;6493;50.928;7.172;2022-10-19T20:02:29;8.80;59.60
12849;DHT22;6493;50.928;7.172;2022-10-19T20:07:38;8.70;60.30
12849;DHT22;6493;50.928;7.172;2022-10-19T20:12:41;8.70;59.70
12849;DHT22;6493;50.928;7.172;2022-10-19T20:17:46;8.60;59.70
12849;DHT22;6493;50.928;7.172;2022-10-19T20:22:50;8.60;60.10
12849;DHT22;6493;50.928;7.172;2022-10-19T20:27:53;8.60;60.10
12849;DHT22;6493;50.928;7.172;2022-10-19T20:32:58;8.50;59.90
12849;DHT22;6493;50.928;7.172;2022-10-19T20:38:02;8.50;60.00
12849;DHT22;6493;50.928;7.172;2022-10-19T20:43:06;8.50;60.00
12849;DHT22;6493;50.928;7.172;2022-10-19T20:48:10;8.50;60.20
12849;DHT22;6493;50.928;7.172;2022-10-19T20:53:14;8.50;60.10
12849;DHT22;6493;50.928;7.172;2022-10-19T20:58:18;8.40;60.40
12849;DHT22;6493;50.928;7.172;2022-10-19T21:03:22;8.40;60.50
12849;DHT22;6493;50.928;7.172;2022-10-19T21:08:26;8.40;61.00
12849;DHT22;6493;50.928;7.172;2022-10-19T21:13:29;8.30;60.70
12849;DHT22;6493;50.928;7.172;2022-10-19T21:18:34;8.30;61.20
12849;DHT22;6493;50.928;7.172;2022-10-19T21:23:38;8.30;61.20
12849;DHT22;6493;50.928;7.172;2022-10-19T21:28:45;8.20;61.60
12849;DHT22;6493;50.928;7.172;2022-10-19T21:33:51;8.20;61.40
12849;DHT22;6493;50.928;7.172;2022-10-19T21:38:55;8.20;61.50
12849;DHT22;6493;50.928;7.172;2022-10-19T21:43:59;8.20;61.80
12849;DHT22;6493;50.928;7.172;2022-10-19T21:49:04;8.20;61.80
12849;DHT22;6493;50.928;7.172;2022-10-19T21:54:10;8.20;62.00
12849;DHT22;6493;50.928;7.172;2022-10-19T21:59:15;8.20;62.20
12849;DHT22;6493;50.928;7.172;2022-10-19T22:04:19;8.20;61.90
12849;DHT22;6493;50.928;7.172;2022-10-19T22:09:23;8.20;61.90
12849;DHT22;6493;50.928;7.172;2022-10-19T22:14:27;8.20;61.80
12849;DHT22;6493;50.928;7.172;2022-10-19T22:19:32;8.20;61.80
12849;DHT22;6493;50.928;7.172;2022-10-19T22:24:35;8.20;62.00
12849;DHT22;6493;50.928;7.172;2022-10-19T22:29:39;8.10;62.30
12849;DHT22;6493;50.928;7.172;2022-10-19T22:34:44;8.10;62.30
12849;DHT22;6493;50.928;7.172;2022-10-19T22:39:48;8.10;62.50
12849;DHT22;6493;50.928;7.172;2022-10-19T22:44:51;8.00;62.40
12849;DHT22;6493;50.928;7.172;2022-10-19T22:49:56;8.00;62.60
12849;DHT22;6493;50.928;7.172;2022-10-19T22:55:00;8.00;63.30
12849;DHT22;6493;50.928;7.172;2022-10-19T23:00:04;8.00;62.90
12849;DHT22;6493;50.928;7.172;2022-10-19T23:05:10;7.90;62.90
12849;DHT22;6493;50.928;7.172;2022-10-19T23:10:13;7.90;62.80
12849;DHT22;6493;50.928;7.172;2022-10-19T23:15:17;7.90;63.70
12849;DHT22;6493;50.928;7.172;2022-10-19T23:20:22;7.90;63.50
12849;DHT22;6493;50.928;7.172;2022-10-19T23:25:26;7.80;63.40
12849;DHT22;6493;50.928;7.172;2022-10-19T23:30:29;7.80;63.70
12849;DHT22;6493;50.928;7.172;2022-10-19T23:35:34;7.80;64.20
12849;DHT22;6493;50.928;7.172;2022-10-19T23:40:38;7.80;64.00
12849;DHT22;6493;50.928;7.172;2022-10-19T23:45:43;7.80;63.80
12849;DHT22;6493;50.928;7.172;2022-10-19T23:50:57;7.70;63.50
12849;DHT22;6493;50.928;7.172;2022-10-19T23:56:02;7.80;64.60
